Time;durP1;ratioP1;P1;durP2;ratioP2;P2;SDS_P1;SDS_P2;PMS_P1;PMS_P2;Temp;Humidity;BMP_temperature;BMP_pressure;BME280_temperature;BME280_humidity;BME280_pressure;Samples;Min_cycle;Max_cycle;Signal;HPM_P1;HPM_P2
2023/10/24 00:01:35;;;;;;;45.38;40.67;;;10.00;99.90;;;;;;5064614;28;20488;-88
2023/10/24 00:04:01;;;;;;;46.05;41.50;;;10.30;99.90;;;;;;5064087;28;20041;-89
2023/10/24 00:06:26;;;;;;;42.25;37.25;;;10.00;99.90;;;;;;5063319;28;20045;-89
2023/10/24 00:08:52;;;;;;;50.13;44.55;;;9.90;99.90;;;;;;5063847;28;20041;-88
2023/10/24 00:11:18;;;;;;;51.10;46.10;;;10.80;99.90;;;;;;5063243;28;20062;-87
2023/10/24 00:13:43;;;;;;;47.97;43.15;;;9.90;99.90;;;;;;5064020;28;20036;-88
2023/10/24 00:16:09;;;;;;;41.53;36.92;;;10.30;99.90;;;;;;5063757;28;20087;-88
2023/10/24 00:18:34;;;;;;;47.97;43.25;;;9.90;99.90;;;;;;5064004;28;20393;-89
2023/10/24 00:21:00;;;;;;;46.40;41.58;;;9.90;99.90;;;;;;5063443;28;20036;-88
2023/10/24 00:23:29;;;;;;;44.10;37.95;;;10.60;99.90;;;;;;5064020;28;20036;-88
2023/10/24 00:25:54;;;;;;;43.30;38.78;;;9.90;99.90;;;;;;5063631;28;20046;-88
2023/10/24 00:28:20;;;;;;;49.28;44.03;;;10.30;99.90;;;;;;5063872;28;20041;-89
2023/10/24 00:30:46;;;;;;;45.08;40.35;;;9.90;99.90;;;;;;5062616;28;20048;-88
2023/10/24 00:33:11;;;;;;;46.50;41.55;;;9.90;99.90;;;;;;5063121;28;20052;-89
2023/10/24 00:35:37;;;;;;;44.22;37.13;;;10.00;99.90;;;;;;5063197;28;20082;-89
2023/10/24 00:38:03;;;;;;;50.72;43.17;;;10.10;99.90;;;;;;5063033;28;20125;-88
2023/10/24 00:40:28;;;;;;;41.70;36.97;;;10.00;99.90;;;;;;5063367;28;20042;-88
2023/10/24 00:42:54;;;;;;;47.70;42.80;;;10.50;99.90;;;;;;5063378;28;20059;-88
2023/10/24 00:45:19;;;;;;;49.00;44.33;;;10.00;99.90;;;;;;5063014;28;20508;-89
2023/10/24 00:47:45;;;;;;;50.67;45.50;;;10.00;99.90;;;;;;5062955;28;20106;-87
2023/10/24 00:50:12;;;;;;;44.47;39.88;;;10.00;99.90;;;;;;5062832;28;20524;-88
2023/10/24 00:52:39;;;;;;;43.70;37.97;;;10.80;99.90;;;;;;5062473;28;20078;-89
2023/10/24 00:55:07;;;;;;;47.50;42.38;;;10.40;99.90;;;;;;5062594;28;20084;-88
2023/10/24 00:57:33;;;;;;;49.78;44.80;;;10.00;99.90;;;;;;5062708;28;20040;-88
2023/10/24 01:00:00;;;;;;;48.00;42.85;;;10.00;99.90;;;;;;5062414;28;20036;-88
2023/10/24 01:02:26;;;;;;;52.15;47.00;;;10.00;99.90;;;;;;5062907;28;20064;-88
2023/10/24 01:04:54;;;;;;;51.60;46.05;;;10.50;99.90;;;;;;5063105;28;20485;-88
2023/10/24 01:07:20;;;;;;;47.17;41.30;;;10.80;99.90;;;;;;5062892;28;20102;-87
2023/10/24 01:09:46;;;;;;;46.25;40.90;;;10.90;99.90;;;;;;5063553;28;20039;-88
2023/10/24 01:12:11;;;;;;;47.90;41.35;;;10.00;99.90;;;;;;5063080;28;20037;-87
2023/10/24 01:14:38;;;;;;;49.92;40.72;;;10.40;99.90;;;;;;5063583;28;20134;-87
2023/10/24 01:17:11;;;;;;;47.92;40.95;;;10.80;99.90;;;;;;5063078;28;20040;-87
2023/10/24 01:19:37;;;;;;;48.17;37.13;;;10.60;99.90;;;;;;5062729;28;20532;-87
2023/10/24 01:22:03;;;;;;;51.05;40.30;;;10.00;99.90;;;;;;5063142;28;20040;-88
2023/10/24 01:24:29;;;;;;;52.42;42.15;;;10.00;99.90;;;;;;5063285;28;20456;-88
2023/10/24 01:26:56;;;;;;;46.50;32.55;;;10.50;99.90;;;;;;5062484;28;20036;-88
2023/10/24 01:29:22;;;;;;;57.28;46.63;;;10.30;99.90;;;;;;5062726;28;20036;-88
2023/10/24 01:31:48;;;;;;;54.75;42.65;;;9.90;99.90;;;;;;5062223;28;20059;-88
2023/10/24 01:34:13;;;;;;;56.25;40.72;;;9.90;99.90;;;;;;5062904;28;20037;-88
2023/10/24 01:36:39;;;;;;;65.88;47.30;;;10.80;99.90;;;;;;5062462;28;20036;-88
2023/10/24 01:39:05;;;;;;;63.90;40.50;;;10.40;99.90;;;;;;5063103;28;20044;-89
2023/10/24 01:41:31;;;;;;;64.78;42.13;;;9.80;99.90;;;;;;5063180;28;20037;-88
2023/10/24 01:43:57;;;;;;;72.50;47.00;;;10.20;99.90;;;;;;5063435;28;20049;-89
2023/10/24 01:46:23;;;;;;;77.20;49.60;;;10.40;99.90;;;;;;5062589;28;20045;-89
2023/10/24 01:48:49;;;;;;;76.18;51.22;;;10.10;99.90;;;;;;5061904;28;20118;-89
2023/10/24 01:51:15;;;;;;;63.33;46.88;;;10.20;99.90;;;;;;5062268;28;20051;-90
2023/10/24 01:53:40;;;;;;;70.70;45.47;;;10.60;99.90;;;;;;5063066;28;20161;-89
2023/10/24 01:56:06;;;;;;;73.18;51.58;;;9.90;99.90;;;;;;5064371;28;20033;-89
2023/10/24 01:58:32;;;;;;;69.28;43.05;;;9.90;99.90;;;;;;5063193;28;20485;-88
2023/10/24 02:00:57;;;;;;;66.40;47.53;;;10.40;99.90;;;;;;5062382;28;20044;-89
2023/10/24 02:03:23;;;;;;;76.97;46.38;;;10.30;99.90;;;;;;5062716;28;20047;-87
2023/10/24 02:05:48;;;;;;;66.88;50.45;;;9.90;99.90;;;;;;5062579;28;20067;-89
2023/10/24 02:08:14;;;;;;;82.55;47.30;;;9.90;99.90;;;;;;5063162;28;20040;-89
2023/10/24 02:10:40;;;;;;;85.10;47.33;;;9.90;99.90;;;;;;5062546;28;20047;-88
2023/10/24 02:13:05;;;;;;;74.60;47.50;;;9.90;99.90;;;;;;5062112;28;20045;-89
2023/10/24 02:15:31;;;;;;;86.38;49.20;;;10.00;99.90;;;;;;5063016;28;20040;-88
2023/10/24 02:17:56;;;;;;;83.13;48.85;;;10.70;99.90;;;;;;5062797;28;20111;-89
2023/10/24 02:20:22;;;;;;;77.50;44.83;;;10.20;99.90;;;;;;5062843;28;20386;-88
2023/10/24 02:22:51;;;;;;;83.85;46.17;;;10.00;99.90;;;;;;5063026;28;20037;-89
2023/10/24 02:25:17;;;;;;;68.53;44.17;;;11.00;99.90;;;;;;5063328;28;20055;-89
2023/10/24 02:27:42;;;;;;;90.50;48.90;;;10.00;99.90;;;;;;5063202;28;20040;-89
2023/10/24 02:30:08;;;;;;;80.88;45.92;;;10.00;99.90;;;;;;5063455;28;20044;-90
2023/10/24 02:32:34;;;;;;;83.97;45.40;;;10.00;99.90;;;;;;5063834;28;20047;-90
2023/10/24 02:35:00;;;;;;;79.35;46.15;;;10.10;99.90;;;;;;5063337;28;20036;-87
2023/10/24 02:37:25;;;;;;;72.53;52.75;;;10.10;99.90;;;;;;5064137;28;20036;-90
2023/10/24 02:39:51;;;;;;;86.85;47.00;;;11.10;99.90;;;;;;5063613;28;20116;-90
2023/10/24 02:42:17;;;;;;;110.60;51.38;;;10.60;99.90;;;;;;5064091;28;20047;-90
2023/10/24 02:44:42;;;;;;;78.43;45.00;;;11.00;99.90;;;;;;5063296;28;20047;-90
2023/10/24 02:47:08;;;;;;;85.47;48.30;;;10.40;99.90;;;;;;5063899;28;20043;-90
2023/10/24 02:49:34;;;;;;;81.88;43.53;;;10.10;99.90;;;;;;5064537;28;20056;-90
2023/10/24 02:51:59;;;;;;;78.63;42.80;;;10.10;99.90;;;;;;5063738;28;20087;-90
2023/10/24 02:54:25;;;;;;;77.28;42.65;;;10.10;99.90;;;;;;5062930;28;20067;-90
2023/10/24 02:56:51;;;;;;;88.93;45.03;;;10.70;99.90;;;;;;5063674;28;20045;-91
2023/10/24 02:59:16;;;;;;;70.25;42.75;;;10.20;99.90;;;;;;5064991;28;20040;-89
2023/10/24 03:01:42;;;;;;;86.18;44.92;;;10.90;99.90;;;;;;5066264;28;20062;-89
2023/10/24 03:04:08;;;;;;;81.75;42.05;;;10.70;99.90;;;;;;5067042;28;20044;-90
2023/10/24 03:06:34;;;;;;;81.32;42.58;;;10.30;99.90;;;;;;5067036;28;20043;-90
2023/10/24 03:09:00;;;;;;;98.80;46.03;;;10.30;99.90;;;;;;5068038;28;20033;-90
2023/10/24 03:11:26;;;;;;;72.35;42.13;;;11.00;99.90;;;;;;5067032;28;20040;-90
2023/10/24 03:13:53;;;;;;;63.42;42.22;;;10.50;99.90;;;;;;5066202;28;20036;-89
2023/10/24 03:16:19;;;;;;;80.38;40.20;;;11.40;99.90;;;;;;5066429;28;20079;-88
2023/10/24 03:18:44;;;;;;;87.53;41.28;;;10.30;99.90;;;;;;5066550;28;20062;-89
2023/10/24 03:21:10;;;;;;;102.28;45.55;;;10.90;99.90;;;;;;5067052;28;20040;-89
2023/10/24 03:23:36;;;;;;;74.22;42.35;;;10.40;99.90;;;;;;5066423;28;20063;-89
2023/10/24 03:26:05;;;;;;;80.55;43.38;;;10.40;99.90;;;;;;5066165;28;20037;-90
2023/10/24 03:28:31;;;;;;;103.07;43.55;;;11.40;99.90;;;;;;5067078;28;20613;-88
2023/10/24 03:31:08;;;;;;;79.13;38.90;;;10.90;99.90;;;;;;5067737;28;20128;-90
2023/10/24 03:33:34;;;;;;;74.85;41.50;;;10.40;99.90;;;;;;5068996;28;20048;-88
2023/10/24 03:36:00;;;;;;;93.70;40.60;;;10.40;99.90;;;;;;5067078;28;20504;-89
2023/10/24 03:38:27;;;;;;;85.45;40.63;;;11.30;99.90;;;;;;5066447;28;20597;-89
2023/10/24 03:40:56;;;;;;;96.97;42.38;;;11.30;99.90;;;;;;5066056;28;20060;-90
2023/10/24 03:43:22;;;;;;;85.15;43.58;;;10.60;99.90;;;;;;5065601;28;20037;-89
2023/10/24 03:45:47;;;;;;;97.07;44.35;;;11.10;99.90;;;;;;5066481;28;20044;-90
2023/10/24 03:48:13;;;;;;;77.22;40.17;;;11.30;99.90;;;;;;5066203;28;20057;-90
2023/10/24 03:50:40;;;;;;;87.47;46.05;;;11.50;99.90;;;;;;5065957;28;20092;-88
2023/10/24 03:53:06;;;;;;;88.45;45.45;;;10.50;99.90;;;;;;5066631;28;20041;-88
2023/10/24 03:55:32;;;;;;;75.13;42.90;;;10.50;99.90;;;;;;5065767;28;20036;-89
2023/10/24 03:57:58;;;;;;;93.38;44.50;;;10.60;99.90;;;;;;5064805;28;20047;-90
2023/10/24 04:00:24;;;;;;;79.03;43.72;;;11.50;99.90;;;;;;5064571;28;20036;-89
2023/10/24 04:02:54;;;;;;;110.60;47.47;;;10.80;99.90;;;;;;5065717;28;20036;-89
2023/10/24 04:05:20;;;;;;;83.40;45.42;;;10.60;99.90;;;;;;5065493;28;20032;-89
2023/10/24 04:07:46;;;;;;;94.68;49.38;;;10.60;99.90;;;;;;5065268;28;20117;-89
2023/10/24 04:10:12;;;;;;;101.00;46.67;;;10.60;99.90;;;;;;5065386;28;20079;-90
2023/10/24 04:12:38;;;;;;;77.20;43.30;;;10.90;99.90;;;;;;5064136;28;20119;-88
2023/10/24 04:15:05;;;;;;;100.32;48.53;;;10.60;99.90;;;;;;5064908;28;20063;-90
2023/10/24 04:17:32;;;;;;;109.20;47.67;;;10.70;99.90;;;;;;5065584;28;20082;-90
2023/10/24 04:19:58;;;;;;;99.82;42.40;;;10.60;99.90;;;;;;5065511;28;20052;-88
2023/10/24 04:22:24;;;;;;;78.30;43.42;;;10.70;99.90;;;;;;5060373;28;20478;-89
2023/10/24 04:24:50;;;;;;;81.40;44.40;;;11.10;99.90;;;;;;5084087;28;20401;-91
2023/10/24 04:27:16;;;;;;;108.80;52.10;;;11.10;99.90;;;;;;5085762;28;20036;-91
2023/10/24 04:29:42;;;;;;;115.55;50.03;;;11.00;99.90;;;;;;5086079;28;20128;-90
2023/10/24 04:32:08;;;;;;;79.80;40.72;;;11.50;99.90;;;;;;5085377;28;20045;-90
2023/10/24 04:34:34;;;;;;;95.75;45.03;;;10.80;99.90;;;;;;5081414;28;20040;-91
2023/10/24 04:37:01;;;;;;;113.93;48.58;;;11.30;99.90;;;;;;5066742;28;20036;-91
2023/10/24 04:39:27;;;;;;;99.75;48.80;;;11.00;99.90;;;;;;5066802;28;20054;-91
2023/10/24 04:41:53;;;;;;;95.40;45.70;;;11.40;99.90;;;;;;5066599;28;20041;-90
2023/10/24 04:44:19;;;;;;;114.85;43.97;;;10.80;99.90;;;;;;5067026;28;20050;-92
2023/10/24 04:46:45;;;;;;;109.78;43.13;;;11.80;99.90;;;;;;5066565;28;20040;-91
2023/10/24 04:49:11;;;;;;;125.53;50.03;;;11.20;99.90;;;;;;5067309;28;20048;-91
2023/10/24 04:51:37;;;;;;;87.50;45.70;;;10.80;99.90;;;;;;5063659;28;20067;-86
2023/10/24 04:54:03;;;;;;;67.88;38.38;;;10.30;99.90;;;;;;5061608;28;20616;-87
2023/10/24 04:56:29;;;;;;;87.95;42.63;;;10.90;99.90;;;;;;5077266;28;20040;-86
2023/10/24 04:58:58;;;;;;;94.30;41.80;;;11.10;99.90;;;;;;5078436;28;20132;-87
2023/10/24 05:01:23;;;;;;;92.53;45.85;;;11.10;99.90;;;;;;5060702;28;20463;-85
2023/10/24 05:03:49;;;;;;;93.13;41.10;;;10.90;99.90;;;;;;5060883;28;20044;-85
2023/10/24 05:06:15;;;;;;;69.78;41.22;;;10.90;99.90;;;;;;5061615;28;20036;-86
2023/10/24 05:08:40;;;;;;;71.80;39.17;;;10.90;99.90;;;;;;5061468;28;20125;-88
2023/10/24 05:11:06;;;;;;;93.38;41.42;;;10.90;99.90;;;;;;5067040;28;20040;-94
2023/10/24 05:13:32;;;;;;;97.95;43.63;;;11.50;99.90;;;;;;5066812;28;20078;-95
2023/10/24 05:15:58;;;;;;;86.50;41.95;;;11.10;99.90;;;;;;5068082;28;20037;-95
2023/10/24 05:18:26;;;;;;;76.90;41.53;;;10.90;99.90;;;;;;5068483;28;20051;-95
2023/10/24 05:20:52;;;;;;;78.47;41.88;;;11.30;99.90;;;;;;5058816;28;20041;-94
2023/10/24 05:23:18;;;;;;;82.57;42.25;;;11.40;99.90;;;;;;5067536;28;20036;-94
2023/10/24 05:25:47;;;;;;;87.63;41.95;;;11.40;99.90;;;;;;5084535;22;20049;-95
2023/10/24 05:28:12;;;;;;;94.88;42.70;;;11.30;99.90;;;;;;5047448;28;20087;-96
2023/10/24 05:30:39;;;;;;;84.70;44.25;;;11.40;99.90;;;;;;5047149;28;20040;-96
2023/10/24 05:33:05;;;;;;;92.75;46.08;;;11.20;99.90;;;;;;5046867;28;20083;-96
2023/10/24 05:35:32;;;;;;;77.03;41.75;;;11.00;99.90;;;;;;5047098;28;20040;-94
2023/10/24 05:37:58;;;;;;;71.75;42.03;;;11.30;99.90;;;;;;5047500;28;20044;-96
2023/10/24 05:40:24;;;;;;;60.15;40.92;;;10.50;99.90;;;;;;5094888;22;20047;-96
2023/10/24 05:42:51;;;;;;;90.30;43.28;;;11.00;99.90;;;;;;5051512;28;20043;-96
2023/10/24 05:45:17;;;;;;;107.68;43.95;;;11.20;99.90;;;;;;5057199;28;20188;-86
2023/10/24 05:47:44;;;;;;;80.28;39.85;;;11.00;99.90;;;;;;5038938;28;20060;-88
2023/10/24 05:50:10;;;;;;;72.68;39.78;;;11.70;99.90;;;;;;5039677;28;20048;-86
2023/10/24 05:52:36;;;;;;;108.20;42.30;;;11.90;99.90;;;;;;5042144;28;20037;-86
2023/10/24 05:55:02;;;;;;;116.45;46.90;;;11.90;99.90;;;;;;5017820;28;20139;-87
2023/10/24 05:57:28;;;;;;;56.60;35.15;;;10.90;99.90;;;;;;5015924;28;20064;-87
2023/10/24 05:59:54;;;;;;;74.72;37.30;;;10.90;99.90;;;;;;5021793;28;20049;-85
2023/10/24 06:02:20;;;;;;;77.82;43.17;;;10.90;99.90;;;;;;5021009;28;20037;-86
2023/10/24 06:04:49;;;;;;;61.60;37.90;;;10.90;99.90;;;;;;5037853;28;20044;-87
2023/10/24 06:07:14;;;;;;;81.30;37.63;;;10.80;99.90;;;;;;5034131;28;20427;-87
2023/10/24 06:09:40;;;;;;;67.88;43.17;;;10.90;99.90;;;;;;5042610;28;20048;-86
2023/10/24 06:12:08;;;;;;;58.22;37.22;;;11.50;99.90;;;;;;5040448;28;20135;-85
2023/10/24 06:14:33;;;;;;;52.40;36.20;;;10.30;99.90;;;;;;5041745;28;20041;-86
2023/10/24 06:16:59;;;;;;;52.80;37.17;;;10.90;99.90;;;;;;5041889;28;20128;-86
2023/10/24 06:19:24;;;;;;;89.35;41.75;;;11.60;99.90;;;;;;5044820;28;20041;-88
2023/10/24 06:21:50;;;;;;;60.83;40.38;;;11.90;99.90;;;;;;5036085;28;20041;-87
2023/10/24 06:24:16;;;;;;;56.60;36.25;;;10.80;99.90;;;;;;5039053;28;20139;-86
2023/10/24 06:26:41;;;;;;;65.40;37.72;;;10.80;99.90;;;;;;5061453;28;20041;-86
2023/10/24 06:29:07;;;;;;;85.20;39.95;;;11.40;99.90;;;;;;5054351;28;20418;-90
2023/10/24 06:31:34;;;;;;;56.42;31.73;;;11.80;99.90;;;;;;5053693;28;20053;-92
2023/10/24 06:34:01;;;;;;;53.88;35.28;;;10.80;99.90;;;;;;5168787;23;20045;-89
2023/10/24 06:36:26;;;;;;;52.05;32.80;;;11.30;99.90;;;;;;5064865;28;20040;-86
2023/10/24 06:38:52;;;;;;;45.13;33.90;;;11.20;99.90;;;;;;5077811;28;20548;-85
2023/10/24 06:41:19;;;;;;;59.05;36.78;;;11.70;99.90;;;;;;5079441;28;20040;-88
2023/10/24 06:43:45;;;;;;;50.90;33.55;;;10.90;99.90;;;;;;5082208;28;20044;-87
2023/10/24 06:46:11;;;;;;;46.83;35.88;;;10.80;99.90;;;;;;5082156;28;20037;-88
2023/10/24 06:48:37;;;;;;;45.70;29.92;;;10.90;99.90;;;;;;5082339;28;20041;-86
2023/10/24 06:51:02;;;;;;;61.25;33.45;;;10.90;99.90;;;;;;5084232;28;20048;-88
2023/10/24 06:53:28;;;;;;;46.60;34.28;;;10.90;99.90;;;;;;5067003;28;20079;-87
2023/10/24 06:56:03;;;;;;;74.53;38.85;;;10.50;99.90;;;;;;5069748;28;20171;-87
2023/10/24 06:58:29;;;;;;;45.45;33.13;;;10.90;99.90;;;;;;5072768;28;20048;-95
2023/10/24 07:00:55;;;;;;;58.17;36.15;;;10.90;99.90;;;;;;5078394;28;20040;-86
2023/10/24 07:03:20;;;;;;;46.92;29.25;;;10.90;99.90;;;;;;5063188;28;20405;-87
2023/10/24 07:05:53;;;;;;;57.70;34.25;;;10.90;99.90;;;;;;5069992;28;20047;-90
2023/10/24 07:08:20;;;;;;;52.92;33.20;;;11.50;99.90;;;;;;5069114;28;20055;-87
2023/10/24 07:10:46;;;;;;;48.38;33.25;;;11.70;99.90;;;;;;5084623;28;20036;-87
2023/10/24 07:13:12;;;;;;;46.88;29.38;;;10.90;99.90;;;;;;5070775;28;20451;-87
2023/10/24 07:15:38;;;;;;;42.20;35.97;;;11.50;99.90;;;;;;5067185;28;20076;-85
2023/10/24 07:18:04;;;;;;;47.28;33.17;;;10.90;99.90;;;;;;5046586;28;20036;-83
2023/10/24 07:20:33;;;;;;;45.78;29.83;;;11.70;99.90;;;;;;5058280;28;20047;-83
2023/10/24 07:22:59;;;;;;;50.95;28.33;;;11.30;99.90;;;;;;5068604;28;20048;-84
2023/10/24 07:25:25;;;;;;;42.53;27.85;;;11.90;99.90;;;;;;5064051;28;20037;-89
2023/10/24 07:27:50;;;;;;;37.85;28.60;;;11.00;99.90;;;;;;5083185;28;20503;-87
2023/10/24 07:30:16;;;;;;;39.50;32.05;;;11.20;99.90;;;;;;5080662;28;20120;-87
2023/10/24 07:32:42;;;;;;;43.78;33.20;;;11.10;99.90;;;;;;5079110;28;20107;-88
2023/10/24 07:35:08;;;;;;;47.65;28.65;;;11.20;99.90;;;;;;5063424;28;20061;-89
2023/10/24 07:37:35;;;;;;;44.75;26.92;;;11.10;99.90;;;;;;5079774;28;20454;-86
2023/10/24 07:40:03;;;;;;;41.45;30.60;;;11.80;99.90;;;;;;5076108;28;20091;-85
2023/10/24 07:42:28;;;;;;;39.28;26.33;;;11.90;99.90;;;;;;5076329;28;20044;-88
2023/10/24 07:44:54;;;;;;;39.90;31.35;;;11.90;99.90;;;;;;5079077;28;20037;-87
2023/10/24 07:47:20;;;;;;;30.42;25.10;;;12.00;99.90;;;;;;5077950;28;20131;-87
2023/10/24 07:49:45;;;;;;;38.22;27.80;;;11.70;99.90;;;;;;5062194;28;20048;-87
2023/10/24 07:52:11;;;;;;;36.15;27.90;;;11.80;99.90;;;;;;5079956;28;20037;-87
2023/10/24 07:54:37;;;;;;;32.00;21.60;;;11.10;99.90;;;;;;5061249;28;20053;-87
2023/10/24 07:57:03;;;;;;;42.83;28.88;;;11.50;99.90;;;;;;5077486;28;20037;-87
2023/10/24 07:59:29;;;;;;;30.92;23.02;;;11.20;99.90;;;;;;5082692;28;20048;-87
2023/10/24 08:01:55;;;;;;;35.65;23.73;;;11.70;99.90;;;;;;5051923;28;20096;-88
2023/10/24 08:04:20;;;;;;;32.97;23.17;;;11.20;99.90;;;;;;5069608;28;20061;-89
2023/10/24 08:06:46;;;;;;;37.53;27.70;;;12.00;99.90;;;;;;5106511;28;20066;-89
2023/10/24 08:09:12;;;;;;;34.50;28.23;;;11.30;99.90;;;;;;5091246;28;20040;-89
2023/10/24 08:11:38;;;;;;;36.80;24.38;;;11.20;99.90;;;;;;5062699;28;20041;-86
2023/10/24 08:14:03;;;;;;;34.10;24.10;;;12.10;99.90;;;;;;5079903;28;20132;-87
2023/10/24 08:16:29;;;;;;;36.13;21.50;;;11.20;99.90;;;;;;5079915;28;20133;-87
2023/10/24 08:18:56;;;;;;;29.08;20.20;;;11.30;99.90;;;;;;5084704;28;20104;-91
2023/10/24 08:21:21;;;;;;;33.88;23.23;;;11.80;99.90;;;;;;5057984;28;20041;-89
2023/10/24 08:23:47;;;;;;;41.92;21.27;;;12.20;99.90;;;;;;5080754;28;20082;-87
2023/10/24 08:26:13;;;;;;;35.22;22.45;;;11.20;99.90;;;;;;5080734;28;20076;-87
2023/10/24 08:28:38;;;;;;;31.85;22.45;;;11.40;99.90;;;;;;5074892;28;20036;-87
2023/10/24 08:31:04;;;;;;;34.63;22.48;;;11.30;99.90;;;;;;5082811;28;20032;-87
2023/10/24 08:33:30;;;;;;;37.38;22.88;;;11.50;99.90;;;;;;5064931;28;20048;-87
2023/10/24 08:35:56;;;;;;;34.75;21.52;;;11.70;99.90;;;;;;5064614;28;20044;-87
2023/10/24 08:38:22;;;;;;;39.60;25.92;;;12.00;99.90;;;;;;5065783;28;20093;-88
2023/10/24 08:40:48;;;;;;;33.15;19.55;;;11.60;99.90;;;;;;5066456;28;20316;-87
2023/10/24 08:43:15;;;;;;;30.40;20.92;;;11.30;99.90;;;;;;5066146;28;20041;-87
2023/10/24 08:45:41;;;;;;;30.88;21.38;;;11.40;99.90;;;;;;5066327;28;20044;-87
2023/10/24 08:48:08;;;;;;;35.72;20.88;;;11.30;99.90;;;;;;5064624;28;20032;-88
2023/10/24 08:50:34;;;;;;;41.78;24.83;;;12.20;99.90;;;;;;5065356;28;20032;-88
2023/10/24 08:53:00;;;;;;;30.65;23.63;;;11.30;99.90;;;;;;5064427;28;20404;-87
2023/10/24 08:55:28;;;;;;;27.08;18.88;;;12.20;99.90;;;;;;5064765;28;20100;-87
2023/10/24 08:57:56;;;;;;;30.95;23.27;;;11.40;99.90;;;;;;5064719;28;20066;-88
2023/10/24 09:00:22;;;;;;;38.17;20.85;;;11.40;99.90;;;;;;5064730;28;20044;-87
2023/10/24 09:02:48;;;;;;;33.88;20.08;;;12.10;99.90;;;;;;5065325;28;20093;-87
2023/10/24 09:05:14;;;;;;;32.20;19.05;;;12.00;99.90;;;;;;5065653;28;20068;-87
2023/10/24 09:07:41;;;;;;;31.92;21.00;;;11.50;99.90;;;;;;5065982;28;20191;-86
2023/10/24 09:10:07;;;;;;;31.88;19.85;;;11.40;99.90;;;;;;5065709;28;20036;-86
2023/10/24 09:12:34;;;;;;;31.40;21.00;;;11.40;99.90;;;;;;5082479;28;20056;-86
2023/10/24 09:15:01;;;;;;;28.20;18.63;;;11.50;99.90;;;;;;5064907;28;20044;-86
2023/10/24 09:17:30;;;;;;;30.65;20.38;;;11.60;99.90;;;;;;5064931;28;20040;-87
2023/10/24 09:19:56;;;;;;;28.52;21.27;;;12.40;99.90;;;;;;5065357;28;20097;-87
2023/10/24 09:22:22;;;;;;;34.78;20.75;;;11.70;99.90;;;;;;5064663;28;20037;-87
2023/10/24 09:24:49;;;;;;;30.52;20.60;;;11.60;99.90;;;;;;5064319;28;20097;-87
2023/10/24 09:27:23;;;;;;;31.50;21.92;;;12.20;99.90;;;;;;5065019;28;20044;-86
2023/10/24 09:29:50;;;;;;;27.50;21.65;;;11.60;99.90;;;;;;5064802;28;20044;-87
2023/10/24 09:32:17;;;;;;;31.50;24.02;;;11.40;99.90;;;;;;5064964;28;20090;-87
2023/10/24 09:34:44;;;;;;;32.78;22.65;;;11.50;99.90;;;;;;5065315;28;20093;-86
2023/10/24 09:37:10;;;;;;;33.63;24.17;;;12.20;99.90;;;;;;5065159;28;20056;-86
2023/10/24 09:39:57;;;;;;;34.42;22.52;;;12.20;99.90;;;;;;5065389;28;20504;-87
2023/10/24 09:42:27;;;;;;;32.42;20.27;;;11.50;99.90;;;;;;5065501;28;20040;-86
2023/10/24 09:44:57;;;;;;;35.20;25.08;;;11.50;99.90;;;;;;5064837;28;20046;-86
2023/10/24 09:47:23;;;;;;;34.10;24.45;;;11.90;99.90;;;;;;5065284;28;20044;-87
2023/10/24 09:49:53;;;;;;;34.55;23.55;;;11.90;99.90;;;;;;5064792;28;20037;-87
2023/10/24 09:52:20;;;;;;;29.70;23.52;;;11.50;99.90;;;;;;5065001;28;20036;-86
2023/10/24 09:55:07;;;;;;;28.77;25.33;;;11.40;99.90;;;;;;5064825;28;20044;-87
2023/10/24 09:57:34;;;;;;;31.50;24.08;;;11.40;99.90;;;;;;5062610;28;20040;-87
2023/10/24 10:00:00;;;;;;;32.03;23.38;;;11.40;99.90;;;;;;5064309;28;20040;-87
2023/10/24 10:02:26;;;;;;;35.53;24.52;;;12.20;99.90;;;;;;5080671;28;20049;-86
2023/10/24 10:04:52;;;;;;;33.15;23.58;;;12.00;99.90;;;;;;5063980;28;20037;-87
2023/10/24 10:07:20;;;;;;;31.63;24.05;;;11.80;99.90;;;;;;5063918;28;20056;-86
2023/10/24 10:09:50;;;;;;;37.10;24.90;;;11.50;99.90;;;;;;5064263;28;20433;-86
2023/10/24 10:12:18;;;;;;;29.08;20.13;;;11.60;99.90;;;;;;5064112;28;20078;-85
2023/10/24 10:15:21;;;;;;;30.10;24.50;;;12.40;99.90;;;;;;5063836;28;20071;-87
2023/10/24 10:18:15;;;;;;;30.73;23.58;;;11.50;99.90;;;;;;5064623;28;20083;-86
2023/10/24 10:21:34;;;;;;;34.85;24.65;;;11.60;99.90;;;;;;5064519;28;20182;-87
2023/10/24 10:24:27;;;;;;;28.85;23.73;;;11.50;99.90;;;;;;5026241;28;20529;-86
2023/10/24 10:27:30;;;;;;;26.05;23.27;;;11.50;99.90;;;;;;5026361;28;20048;-86
2023/10/24 10:30:21;;;;;;;26.02;18.92;;;11.50;99.90;;;;;;5042609;28;20117;-86
2023/10/24 10:32:50;;;;;;;26.08;20.88;;;11.60;99.90;;;;;;5034348;28;20157;-86
2023/10/24 10:35:18;;;;;;;25.35;19.60;;;11.70;99.90;;;;;;5042401;28;20077;-87
2023/10/24 10:38:03;;;;;;;32.08;23.73;;;11.60;99.90;;;;;;5026094;28;20104;-86
2023/10/24 10:40:29;;;;;;;28.05;22.77;;;11.70;99.90;;;;;;5025849;28;20041;-87
2023/10/24 10:42:55;;;;;;;26.70;23.95;;;11.50;99.90;;;;;;5026129;28;20033;-87
2023/10/24 10:45:32;;;;;;;29.20;19.88;;;11.80;99.90;;;;;;5025922;28;20052;-87
2023/10/24 10:48:04;;;;;;;23.60;19.73;;;11.90;99.90;;;;;;5026182;28;20107;-86
2023/10/24 10:50:34;;;;;;;26.33;21.93;;;11.90;99.90;;;;;;5026599;28;20041;-87
2023/10/24 10:53:23;;;;;;;21.55;18.75;;;12.00;99.90;;;;;;5026310;28;20216;-86
2023/10/24 10:55:55;;;;;;;25.40;22.55;;;12.70;99.90;;;;;;5063825;28;20041;-85
2023/10/24 10:58:23;;;;;;;20.88;18.52;;;11.90;99.90;;;;;;5063622;28;20070;-86
2023/10/24 11:01:20;;;;;;;28.17;22.08;;;12.00;99.90;;;;;;5063571;28;20109;-87
2023/10/24 11:03:48;;;;;;;24.42;19.58;;;12.00;99.90;;;;;;5060285;28;20052;-87
2023/10/24 11:06:15;;;;;;;25.05;21.90;;;12.20;99.90;;;;;;5063529;28;20055;-86
2023/10/24 11:08:48;;;;;;;26.10;22.38;;;12.00;99.90;;;;;;5080406;28;20047;-87
2023/10/24 11:11:18;;;;;;;23.73;17.42;;;12.10;99.90;;;;;;5062853;28;20060;-86
2023/10/24 11:13:47;;;;;;;24.67;21.58;;;12.20;99.90;;;;;;5063420;28;20041;-86
2023/10/24 11:16:14;;;;;;;22.92;20.15;;;12.40;99.90;;;;;;5062379;28;20044;-85
2023/10/24 11:18:41;;;;;;;24.27;19.90;;;12.20;99.90;;;;;;5062393;28;20050;-86
2023/10/24 11:21:12;;;;;;;23.98;17.25;;;12.20;99.90;;;;;;5063411;28;20120;-86
2023/10/24 11:23:42;;;;;;;19.42;15.52;;;12.40;99.90;;;;;;5066068;28;20040;-86
2023/10/24 11:26:08;;;;;;;23.33;20.58;;;12.70;99.90;;;;;;5066878;28;20044;-87
2023/10/24 11:28:34;;;;;;;18.15;15.75;;;12.90;99.90;;;;;;5066552;28;20037;-86
2023/10/24 11:31:24;;;;;;;23.08;19.67;;;12.70;99.90;;;;;;5066930;28;20032;-87
2023/10/24 11:33:50;;;;;;;24.45;21.63;;;12.20;99.90;;;;;;5066963;28;20059;-86
2023/10/24 11:36:16;;;;;;;21.35;18.27;;;12.20;99.90;;;;;;5083858;28;20056;-86
2023/10/24 11:38:41;;;;;;;20.63;17.83;;;12.40;99.90;;;;;;5067316;28;20044;-87
2023/10/24 11:41:07;;;;;;;21.92;19.08;;;12.40;99.90;;;;;;5067066;28;20049;-86
2023/10/24 11:43:33;;;;;;;24.08;21.52;;;12.20;99.90;;;;;;5067371;28;20041;-86
2023/10/24 11:45:59;;;;;;;28.00;21.00;;;12.20;99.90;;;;;;5084073;28;20043;-85
2023/10/24 11:48:25;;;;;;;26.98;23.80;;;12.20;99.90;;;;;;5083335;28;20032;-86
2023/10/24 11:50:52;;;;;;;22.85;20.10;;;12.20;99.90;;;;;;5083688;28;20032;-86
2023/10/24 11:53:23;;;;;;;21.58;19.35;;;12.80;99.90;;;;;;5067144;28;20066;-86
2023/10/24 11:55:50;;;;;;;23.00;20.05;;;12.20;99.90;;;;;;5066584;28;20102;-86
2023/10/24 11:58:16;;;;;;;26.02;18.45;;;12.20;99.90;;;;;;5083497;28;20040;-86
2023/10/24 12:00:43;;;;;;;29.13;19.83;;;12.10;99.90;;;;;;5066519;28;20040;-86
2023/10/24 12:03:10;;;;;;;21.60;16.65;;;12.10;99.90;;;;;;5066471;28;20040;-86
2023/10/24 12:05:36;;;;;;;20.85;18.17;;;12.10;99.90;;;;;;5066112;28;20086;-86
2023/10/24 12:08:03;;;;;;;22.08;18.88;;;12.10;99.90;;;;;;5083613;28;20074;-86
2023/10/24 12:10:30;;;;;;;22.27;17.35;;;11.80;99.90;;;;;;5066169;28;20071;-86
2023/10/24 12:13:06;;;;;;;22.85;19.02;;;12.00;99.90;;;;;;5083044;28;20146;-86
2023/10/24 12:15:32;;;;;;;22.77;20.42;;;12.00;99.90;;;;;;5083015;28;20036;-86
2023/10/24 12:18:04;;;;;;;21.20;18.83;;;12.10;99.90;;;;;;5066225;28;20113;-86
2023/10/24 12:20:31;;;;;;;23.98;20.20;;;12.20;99.90;;;;;;5066687;28;20123;-86
2023/10/24 12:22:57;;;;;;;21.33;16.90;;;12.20;99.90;;;;;;5066643;28;20067;-86
2023/10/24 12:25:23;;;;;;;23.58;20.13;;;12.40;99.90;;;;;;5083032;28;20045;-86
2023/10/24 12:27:49;;;;;;;22.20;19.52;;;12.80;99.90;;;;;;5066742;28;20313;-87
2023/10/24 12:30:14;;;;;;;19.88;16.35;;;12.60;99.90;;;;;;5083099;28;20036;-86